createdAt,value
2016-09-17T00:00:27.831Z,1008.88
2016-09-17T00:01:38.835Z,1008.88
2016-09-17T00:02:49.841Z,1008.9
2016-09-17T00:04:00.840Z,1008.92
2016-09-17T00:05:11.844Z,1008.9
2016-09-17T00:06:22.852Z,1008.88
2016-09-17T00:07:33.867Z,1008.94
2016-09-17T00:08:45.268Z,1008.94
2016-09-17T00:09:56.278Z,1008.98
2016-09-17T00:11:07.280Z,1008.95
2016-09-17T00:12:18.483Z,1008.97
2016-09-17T00:13:29.492Z,1009.01
2016-09-17T00:14:40.495Z,1008.99
2016-09-17T00:15:51.496Z,1008.98
2016-09-17T00:17:02.508Z,1008.99
2016-09-17T00:18:13.710Z,1008.99
2016-09-17T00:19:24.710Z,1008.99
2016-09-17T00:20:35.920Z,1008.95
2016-09-17T00:21:46.923Z,1008.98
2016-09-17T00:22:57.956Z,1009.01
2016-09-17T00:24:09.161Z,1009.06
2016-09-17T00:25:20.157Z,1009.08
2016-09-17T00:26:31.160Z,1009.14
2016-09-17T00:27:42.166Z,1009.14
2016-09-17T00:28:53.170Z,1009.14
2016-09-17T00:30:04.174Z,1009.18
2016-09-17T00:31:15.178Z,1009.18
2016-09-17T00:32:26.190Z,1009.12
2016-09-17T00:33:37.200Z,1009.14
2016-09-17T00:34:48.400Z,1009.14
2016-09-17T00:35:59.600Z,1009.21
2016-09-17T00:37:10.606Z,1009.2
2016-09-17T00:38:21.605Z,1009.21
2016-09-17T00:39:32.605Z,1009.21
2016-09-17T00:40:43.610Z,1009.16
2016-09-17T00:41:54.631Z,1009.2
2016-09-17T00:43:05.639Z,1009.16
2016-09-17T00:44:16.652Z,1009.17
2016-09-17T00:45:27.651Z,1009.14
2016-09-17T00:46:38.863Z,1009.15
2016-09-17T00:47:49.855Z,1009.21
2016-09-17T00:49:00.862Z,1009.16
2016-09-17T00:50:11.873Z,1009.17
2016-09-17T00:51:22.885Z,1009.14
2016-09-17T00:52:33.881Z,1009.14
2016-09-17T00:53:44.877Z,1009.08
2016-09-17T00:54:56.080Z,1009.14
2016-09-17T00:56:07.084Z,1009.08
2016-09-17T00:57:18.084Z,1009.08
2016-09-17T00:58:29.095Z,1009.08
2016-09-17T00:59:40.101Z,1009.11
2016-09-17T01:00:51.122Z,1009.12
2016-09-17T01:02:02.139Z,1009.12
2016-09-17T01:03:13.153Z,1009.08
2016-09-17T01:04:24.156Z,1009.04
2016-09-17T01:05:35.155Z,1009.01
2016-09-17T01:06:46.161Z,1009.03
2016-09-17T01:07:57.364Z,1009.04
2016-09-17T01:09:08.363Z,1008.99
2016-09-17T01:10:19.367Z,1008.99
2016-09-17T01:11:30.376Z,1009
2016-09-17T01:12:41.386Z,1008.99
2016-09-17T01:13:52.396Z,1008.97
2016-09-17T01:15:03.400Z,1008.94
2016-09-17T01:16:14.397Z,1008.97
2016-09-17T01:17:25.400Z,1009.01
2016-09-17T01:18:36.405Z,1009.04
2016-09-17T01:19:47.598Z,1009.05
2016-09-17T01:20:58.808Z,1009.11
2016-09-17T01:22:10.021Z,1009.12
2016-09-17T01:23:21.238Z,1009.09
2016-09-17T01:24:32.236Z,1009.11
2016-09-17T01:25:43.255Z,1009.12
2016-09-17T01:26:54.266Z,1009.13
2016-09-17T01:28:05.273Z,1009.14
2016-09-17T01:29:16.285Z,1009.13
2016-09-17T01:30:27.286Z,1009.12
2016-09-17T01:31:38.285Z,1009.12
2016-09-17T01:32:49.290Z,1009.07
2016-09-17T01:34:00.281Z,1009.03
2016-09-17T01:35:11.288Z,1009.02
2016-09-17T01:36:22.294Z,1009.05
2016-09-17T01:37:33.301Z,1009.03
2016-09-17T01:38:44.301Z,1008.98
2016-09-17T01:39:55.301Z,1009.01
2016-09-17T01:41:06.303Z,1009.03
2016-09-17T01:42:17.310Z,1009.03
2016-09-17T01:43:28.307Z,1009.03
2016-09-17T01:44:39.306Z,1009.08
2016-09-17T01:45:50.307Z,1009.11
2016-09-17T01:47:01.310Z,1009.11
2016-09-17T01:48:12.309Z,1009.11
2016-09-17T01:49:23.304Z,1009.09
2016-09-17T01:50:34.316Z,1009.07
2016-09-17T01:51:45.326Z,1009.1
2016-09-17T01:52:56.727Z,1009.13
2016-09-17T01:54:07.737Z,1009.21
2016-09-17T01:55:18.945Z,1009.28
2016-09-17T01:56:29.948Z,1009.25
2016-09-17T01:57:40.956Z,1009.29
2016-09-17T01:58:51.968Z,1009.3
2016-09-17T02:00:03.168Z,1009.32
2016-09-17T02:01:14.177Z,1009.34
2016-09-17T02:02:25.181Z,1009.32
2016-09-17T02:03:36.196Z,1009.32
2016-09-17T02:04:47.202Z,1009.26
2016-09-17T02:05:58.200Z,1009.25
2016-09-17T02:07:09.414Z,1009.29
2016-09-17T02:08:20.432Z,1009.32
2016-09-17T02:09:31.436Z,1009.3
2016-09-17T02:10:42.455Z,1009.24
2016-09-17T02:11:53.455Z,1009.2
2016-09-17T02:13:04.673Z,1009.2
2016-09-17T02:14:15.677Z,1009.23
2016-09-17T02:15:26.681Z,1009.22
2016-09-17T02:16:37.682Z,1009.22
2016-09-17T02:17:48.702Z,1009.28
2016-09-17T02:18:59.709Z,1009.27
2016-09-17T02:20:10.716Z,1009.25
2016-09-17T02:21:21.920Z,1009.25
2016-09-17T02:22:32.923Z,1009.21
2016-09-17T02:23:43.929Z,1009.18
2016-09-17T02:24:55.341Z,1009.13
2016-09-17T02:26:06.345Z,1009.16
2016-09-17T02:27:17.346Z,1009.18
2016-09-17T02:28:28.348Z,1009.2
2016-09-17T02:29:39.349Z,1009.21
2016-09-17T02:30:50.360Z,1009.25
2016-09-17T02:32:01.563Z,1009.26
2016-09-17T02:33:12.769Z,1009.27
2016-09-17T02:34:23.780Z,1009.29
2016-09-17T02:35:34.788Z,1009.29
2016-09-17T02:36:45.803Z,1009.28
2016-09-17T02:37:56.809Z,1009.28
2016-09-17T02:39:07.806Z,1009.28
2016-09-17T02:40:18.808Z,1009.25
2016-09-17T02:41:29.807Z,1009.23
2016-09-17T02:42:40.811Z,1009.21
2016-09-17T02:43:51.810Z,1009.18
2016-09-17T02:45:02.822Z,1009.15
2016-09-17T02:46:13.832Z,1009.15
2016-09-17T02:47:24.832Z,1009.17
2016-09-17T02:48:36.034Z,1009.2
2016-09-17T02:49:47.027Z,1009.16
2016-09-17T02:50:58.031Z,1009.24
2016-09-17T02:52:09.030Z,1009.24
2016-09-17T02:53:20.027Z,1009.22
2016-09-17T02:54:31.032Z,1009.26
2016-09-17T02:55:42.037Z,1009.28
2016-09-17T02:56:53.048Z,1009.26
2016-09-17T02:58:04.270Z,1009.25
2016-09-17T02:59:15.476Z,1009.19
2016-09-17T03:00:26.483Z,1009.12
2016-09-17T03:01:37.490Z,1009.07
2016-09-17T03:02:48.693Z,1009.04
2016-09-17T03:03:59.700Z,1009.08
2016-09-17T03:05:10.712Z,1009.08
2016-09-17T03:06:21.712Z,1009.09
2016-09-17T03:07:32.777Z,1009.11
2016-09-17T03:08:43.773Z,1009.11
2016-09-17T03:09:54.781Z,1009.15
2016-09-17T03:11:05.780Z,1009.17
2016-09-17T03:12:16.785Z,1009.2
2016-09-17T03:13:27.783Z,1009.22
2016-09-17T03:14:39.179Z,1009.21
2016-09-17T03:15:50.183Z,1009.25
2016-09-17T03:17:01.183Z,1009.24
2016-09-17T03:18:12.194Z,1009.28
2016-09-17T03:19:23.201Z,1009.33
2016-09-17T03:20:34.211Z,1009.31
2016-09-17T03:21:45.213Z,1009.3
2016-09-17T03:22:56.214Z,1009.35
2016-09-17T03:24:07.227Z,1009.33
2016-09-17T03:25:18.427Z,1009.32
2016-09-17T03:26:29.428Z,1009.3
2016-09-17T03:27:40.624Z,1009.34
2016-09-17T03:28:51.628Z,1009.33
2016-09-17T03:30:02.633Z,1009.33
2016-09-17T03:31:13.640Z,1009.35
2016-09-17T03:32:24.639Z,1009.38
2016-09-17T03:33:35.646Z,1009.44
2016-09-17T03:34:46.646Z,1009.5
2016-09-17T03:35:57.649Z,1009.48
2016-09-17T03:37:08.665Z,1009.45
2016-09-17T03:38:19.663Z,1009.41
2016-09-17T03:39:30.679Z,1009.38
2016-09-17T03:40:41.684Z,1009.32
2016-09-17T03:41:52.690Z,1009.31
2016-09-17T03:43:03.900Z,1009.29
2016-09-17T03:44:14.911Z,1009.28
2016-09-17T03:45:25.918Z,1009.26
2016-09-17T03:46:37.120Z,1009.27
2016-09-17T03:47:48.139Z,1009.24
2016-09-17T03:48:59.152Z,1009.21
2016-09-17T03:50:10.157Z,1009.26
2016-09-17T03:51:21.357Z,1009.3
2016-09-17T03:52:32.361Z,1009.3
2016-09-17T03:53:43.375Z,1009.35
2016-09-17T03:54:54.382Z,1009.29
2016-09-17T03:56:05.376Z,1009.3
2016-09-17T03:57:16.380Z,1009.29
2016-09-17T03:58:27.395Z,1009.27
2016-09-17T03:59:38.407Z,1009.23
2016-09-17T04:00:49.406Z,1009.28
2016-09-17T04:02:00.402Z,1009.29
2016-09-17T04:03:11.406Z,1009.31
2016-09-17T04:04:22.606Z,1009.28
2016-09-17T04:05:33.612Z,1009.33
2016-09-17T04:06:44.607Z,1009.28
2016-09-17T04:07:55.626Z,1009.28
2016-09-17T04:09:06.628Z,1009.28
2016-09-17T04:10:17.638Z,1009.33
2016-09-17T04:11:28.643Z,1009.32
2016-09-17T04:12:39.647Z,1009.3
2016-09-17T04:13:50.644Z,1009.3
2016-09-17T04:15:01.845Z,1009.3
2016-09-17T04:16:12.845Z,1009.32
2016-09-17T04:17:23.835Z,1009.28
2016-09-17T04:18:34.839Z,1009.34
2016-09-17T04:19:45.855Z,1009.32
2016-09-17T04:20:56.875Z,1009.37
2016-09-17T04:22:07.899Z,1009.37
2016-09-17T04:23:18.898Z,1009.36
2016-09-17T04:24:29.902Z,1009.36
2016-09-17T04:25:40.905Z,1009.4
2016-09-17T04:26:52.123Z,1009.45
2016-09-17T04:28:03.365Z,1009.46
2016-09-17T04:29:14.381Z,1009.45
2016-09-17T04:30:25.435Z,1009.5
2016-09-17T04:31:36.641Z,1009.56
2016-09-17T04:32:47.649Z,1009.6
2016-09-17T04:33:58.650Z,1009.61
2016-09-17T04:35:09.653Z,1009.63
2016-09-17T04:36:20.648Z,1009.63
2016-09-17T04:37:31.652Z,1009.63
2016-09-17T04:38:42.647Z,1009.63
2016-09-17T04:39:53.653Z,1009.66
2016-09-17T04:41:04.859Z,1009.69
2016-09-17T04:42:16.064Z,1009.71
2016-09-17T04:43:27.068Z,1009.73
2016-09-17T04:44:38.272Z,1009.74
2016-09-17T04:45:49.274Z,1009.75
2016-09-17T04:47:00.482Z,1009.76
2016-09-17T04:48:11.493Z,1009.78
2016-09-17T04:49:22.488Z,1009.8
2016-09-17T04:50:33.502Z,1009.8
2016-09-17T04:51:44.499Z,1009.79
2016-09-17T04:52:55.506Z,1009.75
2016-09-17T04:54:06.512Z,1009.81
2016-09-17T04:55:17.520Z,1009.79
2016-09-17T04:56:28.524Z,1009.8
2016-09-17T04:57:39.533Z,1009.81
2016-09-17T04:58:50.532Z,1009.76
2016-09-17T05:00:01.544Z,1009.78
2016-09-17T05:01:12.550Z,1009.78
2016-09-17T05:02:23.571Z,1009.79
2016-09-17T05:03:34.570Z,1009.79
2016-09-17T05:04:45.564Z,1009.8
2016-09-17T05:05:56.562Z,1009.88
2016-09-17T05:07:07.563Z,1009.88
2016-09-17T05:08:18.572Z,1009.85
2016-09-17T05:09:29.572Z,1009.85
2016-09-17T05:10:40.574Z,1009.83
2016-09-17T05:11:51.589Z,1009.83
2016-09-17T05:13:02.584Z,1009.83
2016-09-17T05:14:13.590Z,1009.83
2016-09-17T05:15:24.606Z,1009.83
2016-09-17T05:16:35.607Z,1009.87
2016-09-17T05:17:46.602Z,1009.83
2016-09-17T05:18:57.665Z,1009.84
2016-09-17T05:20:08.869Z,1009.89
2016-09-17T05:21:19.873Z,1009.88
2016-09-17T05:22:30.873Z,1009.87
2016-09-17T05:23:41.876Z,1009.86
2016-09-17T05:24:52.877Z,1009.91
2016-09-17T05:26:03.892Z,1009.88
2016-09-17T05:27:14.887Z,1009.9
2016-09-17T05:28:25.888Z,1009.91
2016-09-17T05:29:37.110Z,1009.98
2016-09-17T05:30:48.117Z,1009.94
2016-09-17T05:31:59.324Z,1009.99
2016-09-17T05:33:10.327Z,1010.02
2016-09-17T05:34:21.341Z,1010.04
2016-09-17T05:35:32.344Z,1010.06
2016-09-17T05:36:43.346Z,1010.1
2016-09-17T05:37:54.358Z,1010.03
2016-09-17T05:39:05.362Z,1010.03
2016-09-17T05:40:16.376Z,1010.05
2016-09-17T05:41:27.569Z,1010.02
2016-09-17T05:42:38.581Z,1010.11
2016-09-17T05:43:49.566Z,1010.08
2016-09-17T05:45:00.575Z,1010.12
2016-09-17T05:46:11.577Z,1010.14
2016-09-17T05:47:22.571Z,1010.18
2016-09-17T05:48:33.579Z,1010.22
2016-09-17T05:49:44.571Z,1010.21
2016-09-17T05:50:55.769Z,1010.22
2016-09-17T05:52:06.772Z,1010.23
2016-09-17T05:53:17.775Z,1010.26
2016-09-17T05:54:28.778Z,1010.27
2016-09-17T05:55:39.788Z,1010.3
2016-09-17T05:56:50.794Z,1010.26
2016-09-17T05:58:01.798Z,1010.25
2016-09-17T05:59:12.804Z,1010.28
2016-09-17T06:00:23.806Z,1010.23
2016-09-17T06:01:34.806Z,1010.22
2016-09-17T06:02:45.804Z,1010.21
2016-09-17T06:03:56.799Z,1010.23
2016-09-17T06:05:07.805Z,1010.25
2016-09-17T06:06:18.802Z,1010.25
2016-09-17T06:07:29.801Z,1010.26
2016-09-17T06:08:40.812Z,1010.3
2016-09-17T06:09:51.810Z,1010.33
2016-09-17T06:11:02.825Z,1010.3
2016-09-17T06:12:13.824Z,1010.31
2016-09-17T06:13:24.829Z,1010.31
2016-09-17T06:14:35.825Z,1010.3
2016-09-17T06:15:46.822Z,1010.33
2016-09-17T06:16:57.823Z,1010.37
2016-09-17T06:18:09.037Z,1010.39
2016-09-17T06:19:20.443Z,1010.38
2016-09-17T06:20:31.447Z,1010.4
2016-09-17T06:21:42.452Z,1010.39
2016-09-17T06:22:53.448Z,1010.44
2016-09-17T06:24:04.455Z,1010.47
2016-09-17T06:25:15.465Z,1010.47
2016-09-17T06:26:26.458Z,1010.47
2016-09-17T06:27:37.651Z,1010.48
2016-09-17T06:28:48.651Z,1010.47
2016-09-17T06:29:59.651Z,1010.43
2016-09-17T06:31:10.649Z,1010.46
2016-09-17T06:32:21.652Z,1010.49
2016-09-17T06:33:32.647Z,1010.46
2016-09-17T06:34:43.653Z,1010.51
2016-09-17T06:35:54.658Z,1010.47
2016-09-17T06:37:05.651Z,1010.5
2016-09-17T06:38:16.659Z,1010.55
2016-09-17T06:39:27.675Z,1010.55
2016-09-17T06:40:38.682Z,1010.58
2016-09-17T06:41:49.690Z,1010.58
2016-09-17T06:43:00.696Z,1010.54
2016-09-17T06:44:11.685Z,1010.57
2016-09-17T06:45:22.698Z,1010.59
2016-09-17T06:46:33.709Z,1010.63
2016-09-17T06:47:44.709Z,1010.64
2016-09-17T06:48:55.719Z,1010.61
2016-09-17T06:50:06.716Z,1010.59
2016-09-17T06:51:17.734Z,1010.57
2016-09-17T06:52:28.761Z,1010.58
2016-09-17T06:53:39.760Z,1010.62
2016-09-17T06:54:50.756Z,1010.61
2016-09-17T06:56:01.964Z,1010.57
2016-09-17T06:57:12.971Z,1010.62
2016-09-17T06:58:23.975Z,1010.59
2016-09-17T06:59:34.972Z,1010.63
2016-09-17T07:00:45.985Z,1010.61
2016-09-17T07:01:57.190Z,1010.64
2016-09-17T07:03:08.194Z,1010.65
2016-09-17T07:04:19.202Z,1010.62
2016-09-17T07:05:30.192Z,1010.6
2016-09-17T07:06:41.199Z,1010.6
2016-09-17T07:07:52.412Z,1010.6
2016-09-17T07:09:03.423Z,1010.58
2016-09-17T07:10:14.427Z,1010.6
2016-09-17T07:11:25.434Z,1010.61
2016-09-17T07:12:36.641Z,1010.64
2016-09-17T07:13:47.641Z,1010.65
2016-09-17T07:14:58.667Z,1010.62
2016-09-17T07:16:09.672Z,1010.64
2016-09-17T07:17:20.670Z,1010.63
2016-09-17T07:18:31.683Z,1010.59
2016-09-17T07:19:42.693Z,1010.65
2016-09-17T07:20:53.695Z,1010.63
2016-09-17T07:22:04.705Z,1010.65
2016-09-17T07:23:15.706Z,1010.68
2016-09-17T07:24:26.703Z,1010.72
2016-09-17T07:25:37.723Z,1010.71
2016-09-17T07:26:48.730Z,1010.71
2016-09-17T07:27:59.739Z,1010.71
2016-09-17T07:29:10.752Z,1010.71
2016-09-17T07:30:21.752Z,1010.72
2016-09-17T07:31:32.766Z,1010.71
2016-09-17T07:32:43.772Z,1010.71
2016-09-17T07:33:54.982Z,1010.74
2016-09-17T07:35:05.977Z,1010.77
2016-09-17T07:36:17.383Z,1010.74
2016-09-17T07:37:28.402Z,1010.77
2016-09-17T07:38:39.395Z,1010.77
2016-09-17T07:39:50.405Z,1010.74
2016-09-17T07:41:01.407Z,1010.73
2016-09-17T07:42:12.403Z,1010.73
2016-09-17T07:43:23.405Z,1010.74
2016-09-17T07:44:34.428Z,1010.78
2016-09-17T07:45:45.430Z,1010.8
2016-09-17T07:46:56.434Z,1010.83
2016-09-17T07:48:07.439Z,1010.78
2016-09-17T07:49:18.442Z,1010.8
2016-09-17T07:50:29.647Z,1010.86
2016-09-17T07:51:40.649Z,1010.84
2016-09-17T07:52:51.654Z,1010.87
2016-09-17T07:54:02.680Z,1010.87
2016-09-17T07:55:13.701Z,1010.91
2016-09-17T07:56:24.696Z,1010.92
2016-09-17T07:57:35.703Z,1010.92
2016-09-17T07:58:46.710Z,1010.96
2016-09-17T07:59:57.922Z,1010.96
2016-09-17T08:01:09.117Z,1010.97
2016-09-17T08:02:20.124Z,1011.02
2016-09-17T08:03:31.119Z,1011.06
2016-09-17T08:04:42.125Z,1011.1
2016-09-17T08:05:53.130Z,1011.09
2016-09-17T08:07:04.132Z,1011.13
2016-09-17T08:08:15.346Z,1011.12
2016-09-17T08:09:26.346Z,1011.14
2016-09-17T08:10:37.553Z,1011.12
2016-09-17T08:11:48.760Z,1011.16
2016-09-17T08:12:59.770Z,1011.17
2016-09-17T08:14:10.781Z,1011.19
2016-09-17T08:15:21.806Z,1011.22
2016-09-17T08:16:33.017Z,1011.2
2016-09-17T08:17:44.026Z,1011.24
2016-09-17T08:18:55.034Z,1011.21
2016-09-17T08:20:06.033Z,1011.26
2016-09-17T08:21:17.049Z,1011.25
2016-09-17T08:22:28.060Z,1011.28
2016-09-17T08:23:39.075Z,1011.24
2016-09-17T08:24:50.278Z,1011.2
2016-09-17T08:26:01.278Z,1011.2
2016-09-17T08:27:12.301Z,1011.12
2016-09-17T08:28:23.305Z,1011.18
2016-09-17T08:29:34.307Z,1011.14
2016-09-17T08:30:45.306Z,1011.15
2016-09-17T08:31:56.317Z,1011.14
2016-09-17T08:33:07.317Z,1011.1
2016-09-17T08:34:18.315Z,1011.12
2016-09-17T08:35:29.317Z,1011.05
2016-09-17T08:36:40.528Z,1011.07
2016-09-17T08:37:51.549Z,1011.13
2016-09-17T08:39:02.553Z,1011.13
2016-09-17T08:40:13.759Z,1011.15
2016-09-17T08:41:24.758Z,1011.16
2016-09-17T08:42:35.761Z,1011.21
2016-09-17T08:43:46.968Z,1011.2
2016-09-17T08:44:57.980Z,1011.26
2016-09-17T08:46:09.009Z,1011.22
2016-09-17T08:47:20.020Z,1011.25
2016-09-17T08:48:31.031Z,1011.28
2016-09-17T08:49:42.034Z,1011.3
2016-09-17T08:50:53.043Z,1011.29
2016-09-17T08:52:04.254Z,1011.27
2016-09-17T08:53:15.258Z,1011.27
2016-09-17T08:54:26.264Z,1011.24
2016-09-17T08:55:37.273Z,1011.23
2016-09-17T08:56:48.273Z,1011.21
2016-09-17T08:57:59.274Z,1011.22
2016-09-17T08:59:10.275Z,1011.2
2016-09-17T09:00:21.285Z,1011.19
2016-09-17T09:01:32.496Z,1011.21
2016-09-17T09:02:43.512Z,1011.19
2016-09-17T09:03:54.518Z,1011.21
2016-09-17T09:05:05.530Z,1011.22
2016-09-17T09:06:16.539Z,1011.25
2016-09-17T09:07:27.544Z,1011.26
2016-09-17T09:08:38.741Z,1011.3
2016-09-17T09:09:49.743Z,1011.28
2016-09-17T09:11:00.744Z,1011.29
2016-09-17T09:12:11.749Z,1011.3
2016-09-17T09:13:22.752Z,1011.3
2016-09-17T09:14:33.765Z,1011.28
2016-09-17T09:15:44.967Z,1011.3
2016-09-17T09:16:56.381Z,1011.27
2016-09-17T09:18:07.380Z,1011.24
2016-09-17T09:19:18.382Z,1011.26
2016-09-17T09:20:29.401Z,1011.25
2016-09-17T09:21:40.405Z,1011.23
2016-09-17T09:22:51.420Z,1011.22
2016-09-17T09:24:02.428Z,1011.18
2016-09-17T09:25:13.643Z,1011.16
2016-09-17T09:26:24.848Z,1011.19
2016-09-17T09:27:35.861Z,1011.21
2016-09-17T09:28:46.874Z,1011.19
2016-09-17T09:29:57.873Z,1011.14
2016-09-17T09:31:08.875Z,1011.17
2016-09-17T09:32:19.891Z,1011.18
2016-09-17T09:33:30.890Z,1011.16
2016-09-17T09:34:42.084Z,1011.14
2016-09-17T09:35:53.093Z,1011.14
2016-09-17T09:37:04.100Z,1011.1
2016-09-17T09:38:15.102Z,1011.07
2016-09-17T09:39:26.101Z,1011
2016-09-17T09:40:37.102Z,1011.02
2016-09-17T09:41:48.323Z,1011.05
2016-09-17T09:42:59.324Z,1011.04
2016-09-17T09:44:10.341Z,1011.04
2016-09-17T09:45:21.350Z,1011.05
2016-09-17T09:46:32.347Z,1011.02
2016-09-17T09:47:43.362Z,1011.04
2016-09-17T09:48:54.779Z,1011.07
2016-09-17T09:50:05.993Z,1011.03
2016-09-17T09:51:16.997Z,1011.05
2016-09-17T09:52:27.994Z,1011.05
2016-09-17T09:53:38.996Z,1011.04
2016-09-17T09:54:49.993Z,1011.06
2016-09-17T09:56:01.010Z,1011.08
2016-09-17T09:57:12.013Z,1011.1
2016-09-17T09:58:23.013Z,1011.14
2016-09-17T09:59:34.229Z,1011.16
2016-09-17T10:00:45.440Z,1011.16
2016-09-17T10:01:56.447Z,1011.2
2016-09-17T10:03:07.464Z,1011.19
2016-09-17T10:04:18.465Z,1011.23
2016-09-17T10:05:29.466Z,1011.21
2016-09-17T10:06:40.474Z,1011.23
2016-09-17T10:07:51.481Z,1011.22
2016-09-17T10:09:02.490Z,1011.21
2016-09-17T10:10:13.503Z,1011.27
2016-09-17T10:11:24.514Z,1011.3
2016-09-17T10:12:35.528Z,1011.27
2016-09-17T10:13:46.530Z,1011.31
2016-09-17T10:14:57.548Z,1011.29
2016-09-17T10:16:08.762Z,1011.29
2016-09-17T10:17:19.762Z,1011.27
2016-09-17T10:18:30.776Z,1011.22
2016-09-17T10:19:41.774Z,1011.26
2016-09-17T10:20:52.782Z,1011.24
2016-09-17T10:22:03.787Z,1011.24
2016-09-17T10:23:14.796Z,1011.23
2016-09-17T10:24:26.001Z,1011.26
2016-09-17T10:25:37.013Z,1011.24
2016-09-17T10:26:48.026Z,1011.28
2016-09-17T10:27:59.034Z,1011.22
2016-09-17T10:29:10.032Z,1011.23
2016-09-17T10:30:21.052Z,1011.2
2016-09-17T10:31:32.063Z,1011.23
2016-09-17T10:32:43.062Z,1011.19
2016-09-17T10:33:54.065Z,1011.21
2016-09-17T10:35:05.081Z,1011.24
2016-09-17T10:36:16.088Z,1011.26
2016-09-17T10:37:27.300Z,1011.35
2016-09-17T10:38:38.313Z,1011.37
2016-09-17T10:39:49.323Z,1011.38
2016-09-17T10:41:00.325Z,1011.4
2016-09-17T10:42:11.339Z,1011.41
2016-09-17T10:43:22.549Z,1011.45
2016-09-17T10:44:33.560Z,1011.45
2016-09-17T10:45:44.568Z,1011.47
2016-09-17T10:46:55.575Z,1011.51
2016-09-17T10:48:06.584Z,1011.5
2016-09-17T10:49:17.589Z,1011.49
2016-09-17T10:50:28.595Z,1011.54
2016-09-17T10:51:39.602Z,1011.52
2016-09-17T10:52:50.799Z,1011.53
2016-09-17T10:54:01.817Z,1011.54
2016-09-17T10:55:13.028Z,1011.52
2016-09-17T10:56:24.040Z,1011.5
2016-09-17T10:57:35.053Z,1011.53
2016-09-17T10:58:46.055Z,1011.53
2016-09-17T10:59:57.090Z,1011.53
2016-09-17T11:01:08.100Z,1011.55
2016-09-17T11:02:19.105Z,1011.56
2016-09-17T11:03:30.108Z,1011.56
2016-09-17T11:04:41.116Z,1011.53
2016-09-17T11:05:52.115Z,1011.53
2016-09-17T11:07:03.124Z,1011.54
2016-09-17T11:08:14.136Z,1011.55
2016-09-17T11:09:25.141Z,1011.53
2016-09-17T11:10:36.155Z,1011.54
2016-09-17T11:11:47.150Z,1011.57
2016-09-17T11:12:58.150Z,1011.6
2016-09-17T11:14:09.159Z,1011.56
2016-09-17T11:15:20.165Z,1011.64
2016-09-17T11:16:31.178Z,1011.67
2016-09-17T11:17:42.385Z,1011.65
2016-09-17T11:18:53.396Z,1011.59
2016-09-17T11:20:04.408Z,1011.62
2016-09-17T11:21:15.418Z,1011.57
2016-09-17T11:22:26.414Z,1011.52
2016-09-17T11:23:37.427Z,1011.52
2016-09-17T11:24:48.444Z,1011.53
2016-09-17T11:25:59.447Z,1011.61
2016-09-17T11:27:10.448Z,1011.58
2016-09-17T11:28:21.665Z,1011.58
2016-09-17T11:29:32.676Z,1011.56
2016-09-17T11:30:43.678Z,1011.59
2016-09-17T11:31:54.893Z,1011.64
2016-09-17T11:33:05.901Z,1011.67
2016-09-17T11:34:16.912Z,1011.66
2016-09-17T11:35:28.113Z,1011.67
2016-09-17T11:36:39.125Z,1011.68
2016-09-17T11:37:50.136Z,1011.64
2016-09-17T11:39:01.150Z,1011.67
2016-09-17T11:40:12.154Z,1011.64
2016-09-17T11:41:23.390Z,1011.66
2016-09-17T11:42:34.391Z,1011.68
2016-09-17T11:43:45.601Z,1011.68
2016-09-17T11:44:56.819Z,1011.66
2016-09-17T11:46:07.834Z,1011.66
2016-09-17T11:47:18.860Z,1011.66
2016-09-17T11:48:29.861Z,1011.66
2016-09-17T11:49:40.871Z,1011.66
2016-09-17T11:50:51.880Z,1011.67
2016-09-17T11:52:02.886Z,1011.67
2016-09-17T11:53:14.096Z,1011.7
2016-09-17T11:54:25.097Z,1011.72
2016-09-17T11:55:36.323Z,1011.7
2016-09-17T11:56:47.331Z,1011.7
2016-09-17T11:57:58.352Z,1011.67
2016-09-17T11:59:09.359Z,1011.7
2016-09-17T12:00:20.577Z,1011.71
2016-09-17T12:01:31.583Z,1011.75
2016-09-17T12:02:42.592Z,1011.73
2016-09-17T12:03:53.600Z,1011.75
2016-09-17T12:05:04.826Z,1011.75
2016-09-17T12:06:15.837Z,1011.77
2016-09-17T12:07:26.839Z,1011.75
2016-09-17T12:08:37.842Z,1011.76
2016-09-17T12:09:48.860Z,1011.79
2016-09-17T12:10:59.872Z,1011.78
2016-09-17T12:12:10.880Z,1011.77
2016-09-17T12:13:22.106Z,1011.77
2016-09-17T12:14:33.122Z,1011.74
2016-09-17T12:15:44.541Z,1011.75
2016-09-17T12:16:55.550Z,1011.73
2016-09-17T12:18:06.567Z,1011.71
2016-09-17T12:19:17.575Z,1011.73
2016-09-17T12:20:28.582Z,1011.72
2016-09-17T12:21:39.596Z,1011.77
2016-09-17T12:22:50.797Z,1011.79
2016-09-17T12:24:01.810Z,1011.71
2016-09-17T12:25:12.814Z,1011.75
2016-09-17T12:26:23.821Z,1011.78
2016-09-17T12:27:34.837Z,1011.77
2016-09-17T12:28:45.863Z,1011.76
2016-09-17T12:29:56.865Z,1011.79
2016-09-17T12:31:07.882Z,1011.78
2016-09-17T12:32:18.889Z,1011.79
2016-09-17T12:33:30.100Z,1011.8
2016-09-17T12:34:41.115Z,1011.81
2016-09-17T12:35:52.114Z,1011.77
2016-09-17T12:37:03.127Z,1011.8
2016-09-17T12:38:14.141Z,1011.76
2016-09-17T12:39:25.144Z,1011.75
2016-09-17T12:40:36.148Z,1011.82
2016-09-17T12:41:47.152Z,1011.81
2016-09-17T12:42:58.158Z,1011.8
2016-09-17T12:44:09.369Z,1011.78
2016-09-17T12:45:20.576Z,1011.76
2016-09-17T12:46:31.573Z,1011.77
2016-09-17T12:47:42.589Z,1011.79
2016-09-17T12:48:53.586Z,1011.79
2016-09-17T12:50:04.594Z,1011.79
2016-09-17T12:51:15.808Z,1011.77
2016-09-17T12:52:26.811Z,1011.76
2016-09-17T12:53:37.816Z,1011.77
2016-09-17T12:54:48.816Z,1011.77
2016-09-17T12:55:59.830Z,1011.77
2016-09-17T12:57:10.842Z,1011.76
2016-09-17T12:58:21.850Z,1011.72
2016-09-17T12:59:32.865Z,1011.68
2016-09-17T13:00:43.875Z,1011.68
2016-09-17T13:01:54.884Z,1011.67
2016-09-17T13:03:06.089Z,1011.69
2016-09-17T13:04:17.096Z,1011.68
2016-09-17T13:05:28.097Z,1011.66
2016-09-17T13:06:39.099Z,1011.71
2016-09-17T13:07:50.105Z,1011.67
2016-09-17T13:09:01.110Z,1011.67
2016-09-17T13:10:12.126Z,1011.71
2016-09-17T13:11:23.126Z,1011.71
2016-09-17T13:12:34.131Z,1011.66
2016-09-17T13:13:45.138Z,1011.7
2016-09-17T13:14:56.149Z,1011.71
2016-09-17T13:16:07.356Z,1011.71
2016-09-17T13:17:18.367Z,1011.71
2016-09-17T13:18:29.573Z,1011.72
2016-09-17T13:19:40.583Z,1011.72
2016-09-17T13:20:51.588Z,1011.7
2016-09-17T13:22:02.817Z,1011.68
2016-09-17T13:23:13.827Z,1011.71
2016-09-17T13:24:24.827Z,1011.69
2016-09-17T13:25:35.835Z,1011.68
2016-09-17T13:26:46.848Z,1011.69
2016-09-17T13:27:57.853Z,1011.7
2016-09-17T13:29:08.861Z,1011.68
2016-09-17T13:30:20.074Z,1011.64
2016-09-17T13:31:31.077Z,1011.62
2016-09-17T13:32:42.285Z,1011.64
2016-09-17T13:33:53.280Z,1011.64
2016-09-17T13:35:04.288Z,1011.58
2016-09-17T13:36:15.496Z,1011.58
2016-09-17T13:37:26.896Z,1011.6
2016-09-17T13:38:37.905Z,1011.59
2016-09-17T13:39:48.906Z,1011.61
2016-09-17T13:40:59.908Z,1011.66
2016-09-17T13:42:10.926Z,1011.67
2016-09-17T13:43:21.929Z,1011.68
2016-09-17T13:44:32.932Z,1011.66
2016-09-17T13:45:43.949Z,1011.68
2016-09-17T13:46:55.149Z,1011.64
2016-09-17T13:48:06.154Z,1011.65
2016-09-17T13:49:17.167Z,1011.67
2016-09-17T13:50:28.175Z,1011.66
2016-09-17T13:51:39.178Z,1011.67
2016-09-17T13:52:50.405Z,1011.68
2016-09-17T13:54:01.416Z,1011.7
2016-09-17T13:55:12.425Z,1011.68
2016-09-17T13:56:23.427Z,1011.69
2016-09-17T13:57:34.423Z,1011.71
2016-09-17T13:58:45.426Z,1011.72
2016-09-17T13:59:56.441Z,1011.71
2016-09-17T14:01:07.454Z,1011.73
2016-09-17T14:02:18.455Z,1011.75
2016-09-17T14:03:29.453Z,1011.75
2016-09-17T14:04:40.461Z,1011.74
2016-09-17T14:05:51.463Z,1011.75
2016-09-17T14:07:02.460Z,1011.76
2016-09-17T14:08:13.521Z,1011.72
2016-09-17T14:09:24.524Z,1011.76
2016-09-17T14:10:35.749Z,1011.7
2016-09-17T14:11:46.949Z,1011.73
2016-09-17T14:12:57.971Z,1011.71
2016-09-17T14:14:08.980Z,1011.74
2016-09-17T14:15:19.994Z,1011.75
2016-09-17T14:16:30.997Z,1011.74
2016-09-17T14:17:42.209Z,1011.75
2016-09-17T14:18:53.210Z,1011.74
2016-09-17T14:20:04.426Z,1011.72
2016-09-17T14:21:15.436Z,1011.71
2016-09-17T14:22:26.447Z,1011.74